createdAt,value
2017-07-11T00:00:21.217Z,16.3
2017-07-11T00:01:39.895Z,16.4
2017-07-11T00:02:58.569Z,16.4
2017-07-11T00:04:17.245Z,16.4
2017-07-11T00:05:35.988Z,16.4
2017-07-11T00:06:54.724Z,16.3
2017-07-11T00:08:13.408Z,16.3
2017-07-11T00:09:32.084Z,16.3
2017-07-11T00:10:50.768Z,16.2
2017-07-11T00:12:09.445Z,16.2
2017-07-11T00:13:28.117Z,16.2
2017-07-11T00:14:46.803Z,16.2
2017-07-11T00:16:05.517Z,16.3
2017-07-11T00:17:24.243Z,16.3
2017-07-11T00:18:42.921Z,16.3
2017-07-11T00:20:01.649Z,16.3
2017-07-11T00:21:20.409Z,16.3
2017-07-11T00:22:39.112Z,16.3
2017-07-11T00:23:57.834Z,16.2
2017-07-11T00:25:16.555Z,16.2
2017-07-11T00:26:35.261Z,16.2
2017-07-11T00:27:53.980Z,16.2
2017-07-11T00:29:12.664Z,16.2
2017-07-11T00:30:31.346Z,16.2
2017-07-11T00:31:50.070Z,16.2
2017-07-11T00:33:08.764Z,16.2
2017-07-11T00:34:27.476Z,16.2
2017-07-11T00:35:46.183Z,16.1
2017-07-11T00:37:04.897Z,16.1
2017-07-11T00:38:23.589Z,16.1
2017-07-11T00:39:42.320Z,16.1
2017-07-11T00:41:01.052Z,16
2017-07-11T00:42:19.743Z,16
2017-07-11T00:43:38.419Z,16
2017-07-11T00:44:57.102Z,16
2017-07-11T00:46:15.801Z,16
2017-07-11T00:47:34.494Z,16
2017-07-11T00:48:53.208Z,16.1
2017-07-11T00:50:11.884Z,16.1
2017-07-11T00:51:30.575Z,16.1
2017-07-11T00:52:49.330Z,16.1
2017-07-11T00:54:08.015Z,16.1
2017-07-11T00:55:26.696Z,16.1
2017-07-11T00:56:45.381Z,16.1
2017-07-11T00:58:04.138Z,16.1
2017-07-11T00:59:22.817Z,16
2017-07-11T01:00:41.502Z,16
2017-07-11T01:02:00.171Z,16
2017-07-11T01:03:18.929Z,16
2017-07-11T01:04:37.604Z,16
2017-07-11T01:05:56.292Z,16
2017-07-11T01:07:14.973Z,16
2017-07-11T01:08:33.666Z,16
2017-07-11T01:09:52.424Z,15.9
2017-07-11T01:11:11.107Z,15.9
2017-07-11T01:12:29.784Z,15.9
2017-07-11T01:13:48.481Z,15.9
2017-07-11T01:15:07.208Z,15.9
2017-07-11T01:16:25.928Z,15.9
2017-07-11T01:17:44.608Z,15.9
2017-07-11T01:19:03.298Z,15.9
2017-07-11T01:20:21.968Z,15.9
2017-07-11T01:21:40.641Z,15.8
2017-07-11T01:22:59.326Z,15.8
2017-07-11T01:24:18.025Z,15.8
2017-07-11T01:25:36.735Z,15.7
2017-07-11T01:26:55.460Z,15.7
2017-07-11T01:28:14.155Z,15.7
2017-07-11T01:29:32.834Z,15.7
2017-07-11T01:30:51.515Z,15.7
2017-07-11T01:32:10.198Z,15.7
2017-07-11T01:33:28.962Z,15.7
2017-07-11T01:34:47.651Z,15.7
2017-07-11T01:36:06.328Z,15.7
2017-07-11T01:37:25.005Z,15.7
2017-07-11T01:38:43.683Z,15.7
2017-07-11T01:40:02.425Z,15.7
2017-07-11T01:41:21.104Z,15.7
2017-07-11T01:42:39.778Z,15.7
2017-07-11T01:43:58.462Z,15.7
2017-07-11T01:45:17.160Z,15.7
2017-07-11T01:46:35.885Z,15.7
2017-07-11T01:47:54.569Z,15.7
2017-07-11T01:49:13.259Z,15.7
2017-07-11T01:50:31.983Z,15.7
2017-07-11T01:51:50.665Z,15.7
2017-07-11T01:53:09.374Z,15.6
2017-07-11T01:54:28.048Z,15.7
2017-07-11T01:55:46.742Z,15.6
2017-07-11T01:57:05.443Z,15.6
2017-07-11T01:58:24.144Z,15.6
2017-07-11T01:59:42.844Z,15.5
2017-07-11T02:01:01.592Z,15.5
2017-07-11T02:02:20.336Z,15.5
2017-07-11T02:03:39.045Z,15.5
2017-07-11T02:04:57.726Z,15.5
2017-07-11T02:06:16.451Z,15.5
2017-07-11T02:07:35.122Z,15.5
2017-07-11T02:08:53.821Z,15.5
2017-07-11T02:10:12.519Z,15.5
2017-07-11T02:11:31.232Z,15.5
2017-07-11T02:12:49.910Z,15.5
2017-07-11T02:14:08.584Z,15.5
2017-07-11T02:15:27.311Z,15.5
2017-07-11T02:16:46.050Z,15.6
2017-07-11T02:18:04.743Z,15.6
2017-07-11T02:19:23.422Z,15.6
2017-07-11T02:20:42.137Z,15.6
2017-07-11T02:22:00.832Z,15.6
2017-07-11T02:23:19.550Z,15.6
2017-07-11T02:24:38.283Z,15.6
2017-07-11T02:25:56.966Z,15.6
2017-07-11T02:27:15.725Z,15.6
2017-07-11T02:28:34.451Z,15.6
2017-07-11T02:29:53.184Z,15.6
2017-07-11T02:31:11.861Z,15.6
2017-07-11T02:32:30.595Z,15.6
2017-07-11T02:33:49.306Z,15.6
2017-07-11T02:35:07.986Z,15.6
2017-07-11T02:36:26.714Z,15.6
2017-07-11T02:37:45.412Z,15.6
2017-07-11T02:39:04.129Z,15.6
2017-07-11T02:40:22.804Z,15.6
2017-07-11T02:41:41.505Z,15.6
2017-07-11T02:43:00.220Z,15.6
2017-07-11T02:44:18.979Z,15.6
2017-07-11T02:45:37.654Z,15.6
2017-07-11T02:46:56.346Z,15.5
2017-07-11T02:48:15.028Z,15.5
2017-07-11T02:49:33.699Z,15.5
2017-07-11T02:50:52.405Z,15.5
2017-07-11T02:52:11.089Z,15.5
2017-07-11T02:53:29.799Z,15.5
2017-07-11T02:54:48.477Z,15.4
2017-07-11T02:56:07.149Z,15.4
2017-07-11T02:57:25.814Z,15.4
2017-07-11T02:58:44.524Z,15.4
2017-07-11T03:00:03.206Z,15.4
2017-07-11T03:01:21.887Z,15.5
2017-07-11T03:02:40.574Z,15.5
2017-07-11T03:03:59.308Z,15.5
2017-07-11T03:05:18.002Z,15.5
2017-07-11T03:06:36.683Z,15.5
2017-07-11T03:07:55.370Z,15.5
2017-07-11T03:09:14.130Z,15.5
2017-07-11T03:10:32.863Z,15.5
2017-07-11T03:11:51.572Z,15.5
2017-07-11T03:13:10.259Z,15.5
2017-07-11T03:14:28.979Z,15.5
2017-07-11T03:15:47.694Z,15.5
2017-07-11T03:17:06.366Z,15.5
2017-07-11T03:18:25.073Z,15.6
2017-07-11T03:19:43.825Z,15.6
2017-07-11T03:21:02.506Z,15.6
2017-07-11T03:22:21.189Z,15.6
2017-07-11T03:23:39.867Z,15.7
2017-07-11T03:24:58.589Z,15.7
2017-07-11T03:26:17.320Z,15.7
2017-07-11T03:27:36.002Z,15.7
2017-07-11T03:28:54.683Z,15.7
2017-07-11T03:30:13.401Z,15.7
2017-07-11T03:31:32.128Z,15.7
2017-07-11T03:32:50.812Z,15.8
2017-07-11T03:34:09.540Z,15.8
2017-07-11T03:35:28.226Z,15.8
2017-07-11T03:36:46.904Z,15.8
2017-07-11T03:38:05.579Z,15.8
2017-07-11T03:39:24.259Z,15.8
2017-07-11T03:40:42.981Z,15.9
2017-07-11T03:42:01.650Z,15.9
2017-07-11T03:43:20.349Z,15.9
2017-07-11T03:44:39.057Z,15.9
2017-07-11T03:45:57.785Z,15.9
2017-07-11T03:47:16.507Z,15.9
2017-07-11T03:48:35.205Z,15.9
2017-07-11T03:49:53.911Z,15.9
2017-07-11T03:51:12.679Z,15.9
2017-07-11T03:52:31.397Z,15.9
2017-07-11T03:53:50.082Z,15.9
2017-07-11T03:55:08.786Z,15.9
2017-07-11T03:56:27.474Z,15.9
2017-07-11T03:57:46.175Z,15.9
2017-07-11T03:59:04.854Z,15.9
2017-07-11T04:00:23.582Z,15.9
2017-07-11T04:01:42.342Z,15.9
2017-07-11T04:03:01.075Z,16
2017-07-11T04:04:19.800Z,16
2017-07-11T04:05:38.479Z,16
2017-07-11T04:06:57.178Z,16
2017-07-11T04:08:15.862Z,16
2017-07-11T04:09:34.581Z,16
2017-07-11T04:10:53.312Z,16
2017-07-11T04:12:12.002Z,16
2017-07-11T04:13:30.677Z,15.9
2017-07-11T04:14:49.371Z,15.9
2017-07-11T04:16:08.080Z,15.9
2017-07-11T04:17:26.788Z,15.9
2017-07-11T04:18:45.521Z,15.9
2017-07-11T04:20:04.226Z,15.9
2017-07-11T04:21:22.896Z,15.9
2017-07-11T04:22:41.579Z,15.9
2017-07-11T04:24:00.256Z,16
2017-07-11T04:25:18.974Z,15.9
2017-07-11T04:26:37.684Z,16
2017-07-11T04:27:56.387Z,16
2017-07-11T04:29:15.070Z,16
2017-07-11T04:30:33.763Z,16
2017-07-11T04:31:52.482Z,16
2017-07-11T04:33:11.250Z,16
2017-07-11T04:34:29.936Z,16
2017-07-11T04:35:48.621Z,16
2017-07-11T04:37:07.361Z,16
2017-07-11T04:38:26.062Z,16
2017-07-11T04:39:44.748Z,16
2017-07-11T04:41:03.427Z,16.1
2017-07-11T04:42:22.103Z,16.1
2017-07-11T04:43:40.790Z,16.1
2017-07-11T04:44:59.507Z,16.1
2017-07-11T04:46:18.222Z,16.1
2017-07-11T04:47:36.897Z,16.1
2017-07-11T04:48:55.618Z,16.1
2017-07-11T04:50:14.342Z,16.1
2017-07-11T04:51:33.025Z,16.1
2017-07-11T04:52:51.708Z,16.1
2017-07-11T04:54:10.387Z,16.1
2017-07-11T04:55:29.113Z,16.1
2017-07-11T04:56:47.850Z,16.1
2017-07-11T04:58:06.569Z,16.1
2017-07-11T04:59:25.261Z,16.1
2017-07-11T05:00:43.971Z,16.1
2017-07-11T05:02:02.655Z,16.1
2017-07-11T05:03:21.343Z,16.1
2017-07-11T05:04:40.021Z,16.1
2017-07-11T05:05:58.705Z,16.1
2017-07-11T05:07:17.475Z,16.2
2017-07-11T05:08:36.153Z,16.2
2017-07-11T05:09:54.835Z,16.2
2017-07-11T05:11:13.573Z,16.2
2017-07-11T05:12:32.259Z,16.2
2017-07-11T05:13:50.946Z,16.2
2017-07-11T05:15:09.681Z,16.2
2017-07-11T05:16:28.362Z,16.2
2017-07-11T05:17:47.091Z,16.3
2017-07-11T05:19:05.765Z,16.3
2017-07-11T05:20:24.443Z,16.3
2017-07-11T05:21:43.124Z,16.3
2017-07-11T05:23:01.855Z,16.3
2017-07-11T05:24:20.586Z,16.3
2017-07-11T05:25:39.326Z,16.4
2017-07-11T05:26:58.004Z,16.5
2017-07-11T05:28:16.701Z,16.5
2017-07-11T05:29:35.424Z,16.6
2017-07-11T05:30:54.141Z,16.6
2017-07-11T05:32:12.817Z,16.6
2017-07-11T05:33:31.495Z,16.7
2017-07-11T05:34:50.202Z,16.7
2017-07-11T05:36:08.910Z,16.8
2017-07-11T05:37:27.642Z,16.8
2017-07-11T05:38:46.320Z,16.9
2017-07-11T05:40:05.013Z,17
2017-07-11T05:41:23.750Z,17
2017-07-11T05:42:42.446Z,17.1
2017-07-11T05:44:01.147Z,17.1
2017-07-11T05:45:19.836Z,17.2
2017-07-11T05:46:38.567Z,17.3
2017-07-11T05:47:57.267Z,17.3
2017-07-11T05:49:15.948Z,17.4
2017-07-11T05:50:34.654Z,17.4
2017-07-11T05:51:53.326Z,17.5
2017-07-11T05:53:12.012Z,17.6
2017-07-11T05:54:30.754Z,17.7
2017-07-11T05:55:49.442Z,17.7
2017-07-11T05:57:08.125Z,17.7
2017-07-11T05:58:26.810Z,17.7
2017-07-11T05:59:45.494Z,17.8
2017-07-11T06:01:04.225Z,17.8
2017-07-11T06:02:22.907Z,17.8
2017-07-11T06:03:41.581Z,17.8
2017-07-11T06:05:00.273Z,17.8
2017-07-11T06:06:19.061Z,17.7
2017-07-11T06:07:37.764Z,17.7
2017-07-11T06:08:56.512Z,17.7
2017-07-11T06:10:15.198Z,17.7
2017-07-11T06:11:33.915Z,17.7
2017-07-11T06:12:52.598Z,17.7
2017-07-11T06:14:11.327Z,17.7
2017-07-11T06:15:30.011Z,17.7
2017-07-11T06:16:48.711Z,17.6
2017-07-11T06:18:07.424Z,17.5
2017-07-11T06:19:26.102Z,17.4
2017-07-11T06:20:44.781Z,17.4
2017-07-11T06:22:03.496Z,17.4
2017-07-11T06:23:22.191Z,17.4
2017-07-11T06:24:40.919Z,17.4
2017-07-11T06:25:59.601Z,17.5
2017-07-11T06:27:18.284Z,17.7
2017-07-11T06:28:37.014Z,17.8
2017-07-11T06:29:55.695Z,18
2017-07-11T06:31:14.379Z,18
2017-07-11T06:32:33.102Z,18
2017-07-11T06:33:51.776Z,18.1
2017-07-11T06:35:10.452Z,18.2
2017-07-11T06:36:29.151Z,18.3
2017-07-11T06:37:47.863Z,18.4
2017-07-11T06:39:06.594Z,18.5
2017-07-11T06:40:25.339Z,18.6
2017-07-11T06:41:44.057Z,18.7
2017-07-11T06:43:02.756Z,18.8
2017-07-11T06:44:21.437Z,18.8
2017-07-11T06:45:40.172Z,18.8
2017-07-11T06:46:58.869Z,18.8
2017-07-11T06:48:17.573Z,18.8
2017-07-11T06:49:36.250Z,18.7
2017-07-11T06:50:54.930Z,18.8
2017-07-11T06:52:13.598Z,18.8
2017-07-11T06:53:32.361Z,18.8
2017-07-11T06:54:51.084Z,18.9
2017-07-11T06:56:09.766Z,19
2017-07-11T06:57:28.442Z,19
2017-07-11T06:58:47.175Z,19.1
2017-07-11T07:00:05.894Z,19.2
2017-07-11T07:01:24.622Z,19.3
2017-07-11T07:02:43.318Z,19.3
2017-07-11T07:04:02.039Z,19.3
2017-07-11T07:05:20.738Z,19.4
2017-07-11T07:06:39.432Z,19.4
2017-07-11T07:07:58.126Z,19.5
2017-07-11T07:09:16.854Z,19.5
2017-07-11T07:10:35.571Z,19.6
2017-07-11T07:11:54.275Z,19.8
2017-07-11T07:13:13.009Z,19.9
2017-07-11T07:14:31.693Z,20
2017-07-11T07:15:50.389Z,20.1
2017-07-11T07:17:09.090Z,20.2
2017-07-11T07:18:27.811Z,20.3
2017-07-11T07:19:46.506Z,20.3
2017-07-11T07:21:05.237Z,20.4
2017-07-11T07:22:24.004Z,20.4
2017-07-11T07:23:42.720Z,20.5
2017-07-11T07:25:01.484Z,20.5
2017-07-11T07:26:20.163Z,20.6
2017-07-11T07:27:38.859Z,20.6
2017-07-11T07:28:57.580Z,20.5
2017-07-11T07:30:16.277Z,20.5
2017-07-11T07:31:34.949Z,20.6
2017-07-11T07:32:53.628Z,20.7
2017-07-11T07:34:12.368Z,20.8
2017-07-11T07:35:31.073Z,20.6
2017-07-11T07:36:49.762Z,20.6
2017-07-11T07:38:08.446Z,20.7
2017-07-11T07:39:27.136Z,20.7
2017-07-11T07:40:45.838Z,20.7
2017-07-11T07:42:04.571Z,20.7
2017-07-11T07:43:23.299Z,20.8
2017-07-11T07:44:41.983Z,20.9
2017-07-11T07:46:00.680Z,21
2017-07-11T07:47:19.351Z,20.9
2017-07-11T07:48:38.028Z,20.9
2017-07-11T07:49:56.745Z,20.8
2017-07-11T07:51:15.478Z,20.8
2017-07-11T07:52:34.181Z,20.7
2017-07-11T07:53:52.853Z,20.4
2017-07-11T07:55:11.582Z,20.2
2017-07-11T07:56:30.286Z,19.9
2017-07-11T07:57:49.020Z,19.9
2017-07-11T07:59:07.697Z,20
2017-07-11T08:00:26.383Z,20.4
2017-07-11T08:01:45.077Z,21
2017-07-11T08:03:03.802Z,21.5
2017-07-11T08:04:22.529Z,21.7
2017-07-11T08:05:41.272Z,21.9
2017-07-11T08:06:59.957Z,21.8
2017-07-11T08:08:18.633Z,22.1
2017-07-11T08:09:37.372Z,22.2
2017-07-11T08:10:56.114Z,22.3
2017-07-11T08:12:14.795Z,22.6
2017-07-11T08:13:33.473Z,22.8
2017-07-11T08:14:52.156Z,22.8
2017-07-11T08:16:10.835Z,22.8
2017-07-11T08:17:29.543Z,22.8
2017-07-11T08:18:48.226Z,22.6
2017-07-11T08:20:06.912Z,22.6
2017-07-11T08:21:25.603Z,22.5
2017-07-11T08:22:44.343Z,22.7
2017-07-11T08:24:03.040Z,22.9
2017-07-11T08:25:21.717Z,23.1
2017-07-11T08:26:40.415Z,23.4
2017-07-11T08:27:59.158Z,23.9
2017-07-11T08:29:17.894Z,24
2017-07-11T08:30:36.577Z,24
2017-07-11T08:31:55.298Z,24
2017-07-11T08:33:14.005Z,24
2017-07-11T08:34:32.686Z,24.1
2017-07-11T08:35:51.412Z,24.1
2017-07-11T08:37:10.097Z,23.7
2017-07-11T08:38:28.868Z,23.5
2017-07-11T08:39:47.581Z,23.4
2017-07-11T08:41:06.262Z,23.4
2017-07-11T08:42:24.955Z,23.4
2017-07-11T08:43:43.659Z,23.3
2017-07-11T08:45:02.413Z,23.1
2017-07-11T08:46:21.120Z,22.9
2017-07-11T08:47:39.860Z,22.9
2017-07-11T08:48:58.580Z,23.2
2017-07-11T08:50:17.315Z,23.3
2017-07-11T08:51:36.034Z,23.4
2017-07-11T08:52:54.774Z,23.3
2017-07-11T08:54:13.502Z,23.3
2017-07-11T08:55:32.229Z,23.2
2017-07-11T08:56:50.965Z,23
2017-07-11T08:58:09.647Z,22.7
2017-07-11T08:59:28.383Z,22.6
2017-07-11T09:00:47.122Z,22.5
2017-07-11T09:02:05.807Z,22.1
2017-07-11T09:03:24.487Z,22
2017-07-11T09:04:43.212Z,21.9
2017-07-11T09:06:01.891Z,21.7
2017-07-11T09:07:20.572Z,21.6
2017-07-11T09:08:39.250Z,21.5
2017-07-11T09:09:57.961Z,21.4
2017-07-11T09:11:16.637Z,21.3
2017-07-11T09:12:35.371Z,21.3
2017-07-11T09:13:54.102Z,21.3
2017-07-11T09:15:12.825Z,21.3
2017-07-11T09:16:31.505Z,21.4
2017-07-11T09:17:50.185Z,21.5
2017-07-11T09:19:08.891Z,21.4
2017-07-11T09:20:27.586Z,21.5
2017-07-11T09:21:46.276Z,21.5
2017-07-11T09:23:04.958Z,21.4
2017-07-11T09:24:23.655Z,21.4
2017-07-11T09:25:42.426Z,21.5
2017-07-11T09:27:01.124Z,21.7
2017-07-11T09:28:19.838Z,21.8
2017-07-11T09:29:38.572Z,21.8
2017-07-11T09:30:57.344Z,21.9
2017-07-11T09:32:16.028Z,22.1
2017-07-11T09:33:34.707Z,22.2
2017-07-11T09:34:53.391Z,22.4
2017-07-11T09:36:12.101Z,22.5
2017-07-11T09:37:30.811Z,22.7
2017-07-11T09:38:49.508Z,22.9
2017-07-11T09:40:08.197Z,23.2
2017-07-11T09:41:26.918Z,23.3
2017-07-11T09:42:45.611Z,23.2
2017-07-11T09:44:04.341Z,23.2
2017-07-11T09:45:23.017Z,23.2
2017-07-11T09:46:41.722Z,22.9
2017-07-11T09:48:00.395Z,22.6
2017-07-11T09:49:19.108Z,22.6
2017-07-11T09:50:37.814Z,22.5
2017-07-11T09:51:56.540Z,22.6
2017-07-11T09:53:15.225Z,23.1
2017-07-11T09:54:33.943Z,23.5
2017-07-11T09:55:52.626Z,24.1
2017-07-11T09:57:11.356Z,24.4
2017-07-11T09:58:30.041Z,24.7
2017-07-11T09:59:48.730Z,24.7
2017-07-11T10:01:07.452Z,24.8
2017-07-11T10:02:26.172Z,25
2017-07-11T10:03:44.886Z,25.2
2017-07-11T10:05:03.586Z,25.4
2017-07-11T10:06:22.324Z,25.4
2017-07-11T10:07:41.019Z,25.2
2017-07-11T10:08:59.742Z,24.8
2017-07-11T10:10:18.458Z,24.3
2017-07-11T10:11:37.144Z,24.2
2017-07-11T10:12:55.847Z,24.1
2017-07-11T10:14:14.579Z,24.2
2017-07-11T10:15:33.316Z,24.5
2017-07-11T10:16:51.987Z,24.6
2017-07-11T10:18:10.666Z,24.5
2017-07-11T10:19:29.351Z,24.3
2017-07-11T10:20:48.054Z,24.3
2017-07-11T10:22:06.729Z,24.6
2017-07-11T10:23:25.421Z,24.7
2017-07-11T10:24:44.124Z,24.6
2017-07-11T10:26:02.818Z,24.6
2017-07-11T10:27:21.562Z,24.7
2017-07-11T10:28:40.288Z,24.8
2017-07-11T10:29:58.991Z,24.7
2017-07-11T10:31:17.687Z,24.7
2017-07-11T10:32:36.376Z,24.6
2017-07-11T10:33:55.155Z,24.3
2017-07-11T10:35:13.854Z,24.1
2017-07-11T10:36:32.584Z,23.6
2017-07-11T10:37:51.316Z,23.5
2017-07-11T10:39:10.007Z,23.4
2017-07-11T10:40:28.702Z,23.1
2017-07-11T10:41:47.417Z,22.8
2017-07-11T10:43:06.106Z,22.4
2017-07-11T10:44:24.803Z,22.3
2017-07-11T10:45:43.485Z,22.4
2017-07-11T10:47:02.173Z,22.2
2017-07-11T10:48:20.859Z,22
2017-07-11T10:49:39.615Z,21.8
2017-07-11T10:50:58.318Z,21.8
2017-07-11T10:52:17.000Z,21.8
2017-07-11T10:53:35.738Z,21.9
2017-07-11T10:54:54.481Z,22
2017-07-11T10:56:13.168Z,22.3
2017-07-11T10:57:31.847Z,22.5
2017-07-11T10:58:50.586Z,22.6
2017-07-11T11:00:09.336Z,22.8
2017-07-11T11:01:28.016Z,23
2017-07-11T11:02:46.736Z,23.3
2017-07-11T11:04:05.451Z,23.5
2017-07-11T11:05:24.231Z,23.7
2017-07-11T11:06:42.967Z,23.7
2017-07-11T11:08:01.656Z,23.8
2017-07-11T11:09:20.376Z,23.8
2017-07-11T11:10:39.096Z,23.8
2017-07-11T11:11:57.808Z,23.9
2017-07-11T11:13:16.524Z,23.7
2017-07-11T11:14:35.209Z,23.8
2017-07-11T11:15:53.993Z,23.9
2017-07-11T11:17:12.693Z,24
2017-07-11T11:18:31.377Z,24.2
2017-07-11T11:19:50.064Z,24.5
2017-07-11T11:21:08.779Z,24.9
2017-07-11T11:22:27.466Z,25.2
2017-07-11T11:23:46.152Z,25.6
2017-07-11T11:25:04.900Z,25.9
2017-07-11T11:26:23.582Z,25.9
2017-07-11T11:27:42.313Z,26
2017-07-11T11:29:01.043Z,26.2
2017-07-11T11:30:19.739Z,26.4
2017-07-11T11:31:38.460Z,26.5
2017-07-11T11:32:57.147Z,26.6
2017-07-11T11:34:15.847Z,26.9
2017-07-11T11:35:34.580Z,26.9
2017-07-11T11:36:53.349Z,26.8
2017-07-11T11:38:12.031Z,26.5
2017-07-11T11:39:30.752Z,26.1
2017-07-11T11:40:49.439Z,26
2017-07-11T11:42:08.132Z,26.1
2017-07-11T11:43:26.850Z,26.3
2017-07-11T11:44:45.581Z,26
2017-07-11T11:46:04.307Z,25.6
2017-07-11T11:47:22.992Z,25.7
2017-07-11T11:48:41.726Z,25.8
2017-07-11T11:50:00.403Z,25.4
2017-07-11T11:51:19.116Z,25
2017-07-11T11:52:37.850Z,25
2017-07-11T11:53:56.584Z,25
2017-07-11T11:55:15.300Z,25
2017-07-11T11:56:34.034Z,25.6
2017-07-11T11:57:52.788Z,26.3
2017-07-11T11:59:11.473Z,26.9
2017-07-11T12:00:30.149Z,27.4
2017-07-11T12:01:48.873Z,29.5
2017-07-11T12:03:07.709Z,32.9
2017-07-11T12:04:26.414Z,34.4
2017-07-11T12:05:45.248Z,34.6
2017-07-11T12:07:03.993Z,34.7
2017-07-11T12:08:22.689Z,35
2017-07-11T12:09:41.372Z,35.2
2017-07-11T12:11:00.100Z,35.4
2017-07-11T12:12:18.855Z,35.5
2017-07-11T12:13:37.578Z,35.7
2017-07-11T12:14:56.299Z,35.9
2017-07-11T12:16:15.004Z,36
2017-07-11T12:17:33.683Z,36.1
2017-07-11T12:18:52.428Z,36
2017-07-11T12:20:11.116Z,35.9
2017-07-11T12:21:29.820Z,35.8
2017-07-11T12:22:48.534Z,35.6
2017-07-11T12:24:07.311Z,35.5
2017-07-11T12:25:26.021Z,35.6
2017-07-11T12:26:44.759Z,35.3
2017-07-11T12:28:03.444Z,35.1
2017-07-11T12:29:22.125Z,34.8
2017-07-11T12:30:40.809Z,34.9
2017-07-11T12:31:59.498Z,34.6
2017-07-11T12:33:18.171Z,34.1
2017-07-11T12:34:36.862Z,34
2017-07-11T12:35:55.594Z,34.6
2017-07-11T12:37:14.282Z,34.8
2017-07-11T12:38:33.016Z,35.4
2017-07-11T12:39:51.704Z,35.7
2017-07-11T12:41:10.385Z,36
2017-07-11T12:42:29.143Z,35.9
2017-07-11T12:43:47.855Z,35.9
2017-07-11T12:45:06.583Z,36.3
2017-07-11T12:46:25.321Z,36.5
2017-07-11T12:47:44.026Z,36.6
2017-07-11T12:49:02.703Z,36.2
2017-07-11T12:50:21.429Z,36
2017-07-11T12:51:40.146Z,36.1
2017-07-11T12:52:58.855Z,36
2017-07-11T12:54:17.574Z,35.6
2017-07-11T12:55:36.261Z,35.1
2017-07-11T12:56:54.936Z,34.7
2017-07-11T12:58:13.614Z,34.5
2017-07-11T12:59:32.351Z,34.4
2017-07-11T13:00:51.031Z,34.5
2017-07-11T13:02:09.717Z,34.7
2017-07-11T13:03:28.402Z,34.6
2017-07-11T13:04:47.074Z,34.7
2017-07-11T13:06:05.779Z,34.7
2017-07-11T13:07:24.465Z,34.5
2017-07-11T13:08:43.179Z,34.2
2017-07-11T13:10:01.902Z,34.1
2017-07-11T13:11:20.612Z,34.4
2017-07-11T13:12:39.290Z,34.5
2017-07-11T13:13:57.970Z,34.3
2017-07-11T13:15:16.656Z,34.4
2017-07-11T13:16:35.338Z,34.8
2017-07-11T13:17:54.049Z,35
2017-07-11T13:19:12.785Z,35.1
2017-07-11T13:20:31.464Z,34.8
2017-07-11T13:21:50.172Z,34.5
2017-07-11T13:23:08.886Z,34.3
2017-07-11T13:24:27.624Z,33.8
2017-07-11T13:25:46.318Z,33.7
2017-07-11T13:27:05.015Z,34.3
2017-07-11T13:28:23.693Z,34.6
2017-07-11T13:29:42.410Z,34.6
2017-07-11T13:31:01.090Z,34.4
2017-07-11T13:32:19.769Z,33.9
2017-07-11T13:33:38.484Z,33.6
2017-07-11T13:34:57.171Z,33.6
2017-07-11T13:36:15.888Z,32.7
2017-07-11T13:37:34.581Z,31.2
2017-07-11T13:38:53.316Z,29.9
2017-07-11T13:40:12.045Z,29
2017-07-11T13:41:30.724Z,28.1
2017-07-11T13:42:49.486Z,27.6
2017-07-11T13:44:08.217Z,27.1
2017-07-11T13:45:26.894Z,26.7
2017-07-11T13:46:45.579Z,26.3
2017-07-11T13:48:04.289Z,26.1
2017-07-11T13:49:22.973Z,26.1
2017-07-11T13:50:41.710Z,26.7
2017-07-11T13:52:00.389Z,27.9
2017-07-11T13:53:19.112Z,29.1
2017-07-11T13:54:37.821Z,31.7
2017-07-11T13:55:56.507Z,34.3
2017-07-11T13:57:15.199Z,34.6
2017-07-11T13:58:33.921Z,34.7
2017-07-11T13:59:52.617Z,34.9
2017-07-11T14:01:11.301Z,34.9
2017-07-11T14:02:29.991Z,34.7
2017-07-11T14:03:48.741Z,34.6
2017-07-11T14:05:07.453Z,34.6
2017-07-11T14:06:26.149Z,34.5
2017-07-11T14:07:44.826Z,34.3
2017-07-11T14:09:03.517Z,33
2017-07-11T14:10:22.233Z,31.8
2017-07-11T14:11:40.961Z,31.4
2017-07-11T14:12:59.650Z,31.7
2017-07-11T14:14:18.352Z,33
2017-07-11T14:15:37.035Z,34.3
2017-07-11T14:16:55.714Z,34.3
2017-07-11T14:18:14.406Z,33.9
2017-07-11T14:19:33.092Z,33.5
2017-07-11T14:20:51.767Z,33.4
2017-07-11T14:22:10.455Z,32.3
2017-07-11T14:23:29.152Z,31.7
2017-07-11T14:24:47.911Z,32.8
2017-07-11T14:26:06.646Z,34.2
2017-07-11T14:27:25.380Z,34.4
2017-07-11T14:28:44.123Z,34.4
2017-07-11T14:30:02.864Z,34.3
2017-07-11T14:31:21.574Z,34.2
2017-07-11T14:32:40.282Z,34.1
2017-07-11T14:33:58.986Z,33.5
2017-07-11T14:35:17.684Z,32.5
2017-07-11T14:36:36.410Z,31.8
2017-07-11T14:37:55.097Z,31.6
2017-07-11T14:39:13.798Z,31.6
2017-07-11T14:40:32.474Z,31.9
2017-07-11T14:41:51.155Z,31.5
2017-07-11T14:43:09.838Z,31
2017-07-11T14:44:28.570Z,30.8
2017-07-11T14:45:47.288Z,30.9
2017-07-11T14:47:05.969Z,30.7
2017-07-11T14:48:24.650Z,30.2
2017-07-11T14:49:43.327Z,29.5
2017-07-11T14:51:02.078Z,29
2017-07-11T14:52:20.750Z,28.9
2017-07-11T14:53:39.432Z,28.6
2017-07-11T14:54:58.157Z,28.3
2017-07-11T14:56:16.859Z,28.3
2017-07-11T14:57:35.578Z,28.1
2017-07-11T14:58:54.267Z,27.9
2017-07-11T15:00:12.968Z,27.8
2017-07-11T15:01:31.673Z,27.7
2017-07-11T15:02:50.355Z,27.5
2017-07-11T15:04:09.057Z,27.3
2017-07-11T15:05:27.735Z,27.1
2017-07-11T15:06:46.440Z,27.1
2017-07-11T15:08:05.117Z,26.9
2017-07-11T15:09:23.813Z,26.9
2017-07-11T15:10:42.498Z,27
2017-07-11T15:12:01.240Z,27.2
2017-07-11T15:13:19.916Z,27.3
2017-07-11T15:14:38.644Z,27.6
2017-07-11T15:15:57.389Z,27.8
2017-07-11T15:17:16.093Z,27.7
2017-07-11T15:18:34.782Z,27.6
2017-07-11T15:19:53.468Z,27.4
2017-07-11T15:21:12.170Z,27.5
2017-07-11T15:22:30.856Z,27.3
2017-07-11T15:23:49.568Z,27.1
2017-07-11T15:25:08.308Z,26.9
2017-07-11T15:26:27.017Z,26.6
2017-07-11T15:27:45.722Z,26.2
2017-07-11T15:29:04.404Z,25.9
2017-07-11T15:30:23.098Z,25.6
2017-07-11T15:31:41.777Z,25.6
2017-07-11T15:33:00.484Z,25.7
2017-07-11T15:34:19.174Z,26
2017-07-11T15:35:37.883Z,26.2
2017-07-11T15:36:56.603Z,26.7
2017-07-11T15:38:15.351Z,27.1
2017-07-11T15:39:34.089Z,27
2017-07-11T15:40:52.769Z,27.2
2017-07-11T15:42:11.461Z,27.4
2017-07-11T15:43:30.159Z,27.5
2017-07-11T15:44:48.859Z,27.5
2017-07-11T15:46:07.575Z,27.5
2017-07-11T15:47:26.300Z,27.2
2017-07-11T15:48:45.020Z,27
2017-07-11T15:50:03.700Z,26.9
2017-07-11T15:51:22.413Z,26.9
2017-07-11T15:52:41.105Z,26.8
2017-07-11T15:53:59.845Z,26.7
2017-07-11T15:55:18.578Z,26.6
2017-07-11T15:56:37.310Z,26.6
2017-07-11T15:57:55.987Z,26.9
2017-07-11T15:59:14.729Z,27.1
2017-07-11T16:00:33.435Z,27.3
2017-07-11T16:01:52.131Z,27.6
2017-07-11T16:03:10.815Z,29.4
2017-07-11T16:04:29.529Z,30
2017-07-11T16:05:48.259Z,29.4
2017-07-11T16:07:06.942Z,30.3
2017-07-11T16:08:25.617Z,30.5
2017-07-11T16:09:44.363Z,31.3
2017-07-11T16:11:03.038Z,32.2
2017-07-11T16:12:21.740Z,31.3
2017-07-11T16:13:40.445Z,30.1
2017-07-11T16:14:59.157Z,28.9
2017-07-11T16:16:17.882Z,31
2017-07-11T16:17:36.579Z,31.4
2017-07-11T16:18:55.328Z,30.6
2017-07-11T16:20:14.081Z,30.1
2017-07-11T16:21:32.789Z,28.6
2017-07-11T16:22:51.471Z,27.3
2017-07-11T16:24:10.195Z,26.5
2017-07-11T16:25:28.916Z,25.8
2017-07-11T16:26:47.611Z,25.4
2017-07-11T16:28:06.292Z,25
2017-07-11T16:29:24.976Z,24.6
2017-07-11T16:30:43.675Z,24.4
2017-07-11T16:32:02.407Z,24.2
2017-07-11T16:33:21.147Z,24.2
2017-07-11T16:34:39.853Z,24.2
2017-07-11T16:35:58.605Z,24.2
2017-07-11T16:37:17.347Z,24.3
2017-07-11T16:38:36.026Z,24.4
2017-07-11T16:39:54.705Z,24.4
2017-07-11T16:41:13.393Z,24.6
2017-07-11T16:42:32.076Z,25.1
2017-07-11T16:43:50.790Z,25.6
2017-07-11T16:45:09.469Z,25.7
2017-07-11T16:46:28.181Z,25.9
2017-07-11T16:47:46.889Z,26
2017-07-11T16:49:05.583Z,25.9
2017-07-11T16:50:24.266Z,25.9
2017-07-11T16:51:42.999Z,25.7
2017-07-11T16:53:01.674Z,25.4
2017-07-11T16:54:20.361Z,25.1
2017-07-11T16:55:39.068Z,25.2
2017-07-11T16:56:57.785Z,25.2
2017-07-11T16:58:16.476Z,25.1
2017-07-11T16:59:35.154Z,25.3
2017-07-11T17:00:53.856Z,25.3
2017-07-11T17:02:12.598Z,25.3
2017-07-11T17:03:31.311Z,24.9
2017-07-11T17:04:49.987Z,24.8
2017-07-11T17:06:08.676Z,24.5
2017-07-11T17:07:27.448Z,24.5
2017-07-11T17:08:46.139Z,24.5
2017-07-11T17:10:04.836Z,24.7
2017-07-11T17:11:23.563Z,25.5
2017-07-11T17:12:42.261Z,25.6
2017-07-11T17:14:00.979Z,25.5
2017-07-11T17:15:19.651Z,25.3
2017-07-11T17:16:38.363Z,25.1
2017-07-11T17:17:57.097Z,25
2017-07-11T17:19:15.770Z,24.6
2017-07-11T17:20:34.443Z,24.2
2017-07-11T17:21:53.122Z,24.5
2017-07-11T17:23:11.851Z,26
2017-07-11T17:24:30.583Z,28.5
2017-07-11T17:25:49.326Z,30.9
2017-07-11T17:27:08.020Z,31.7
2017-07-11T17:28:26.735Z,30.9
2017-07-11T17:29:45.404Z,30.8
2017-07-11T17:31:04.116Z,30.9
2017-07-11T17:32:22.849Z,30
2017-07-11T17:33:41.587Z,27.9
2017-07-11T17:35:00.265Z,26.2